Time;durP1;ratioP1;P1;durP2;ratioP2;P2;SDS_P1;SDS_P2;PMS_P1;PMS_P2;Temp;Humidity;BMP_temperature;BMP_pressure;BME280_temperature;BME280_humidity;BME280_pressure;Samples;Min_cycle;Max_cycle;Signal;HPM_P1;HPM_P2
2022/12/29 00:01:44;;;;;;;;;;;20.10;99.90;;;;;;5012206;28;19909;-74
2022/12/29 00:04:12;;;;;;;;;;;20.10;99.90;;;;;;5011943;28;19913;-76
2022/12/29 00:06:39;;;;;;;;;;;20.10;99.90;;;;;;5011754;28;19914;-77
2022/12/29 00:09:06;;;;;;;;;;;20.20;99.90;;;;;;5027066;28;19913;-74
2022/12/29 00:11:32;;;;;;;;;;;20.30;99.90;;;;;;5012143;28;19909;-75
2022/12/29 00:16:44;;;;;;;;;;;20.30;99.90;;;;;;5012079;28;20076;-73
2022/12/29 00:35:52;;;;;;;;;;;20.50;99.90;;;;;;5012014;28;20030;-76
2022/12/29 00:44:09;;;;;;;;;;;20.30;99.90;;;;;;5011293;28;20287;-72
2022/12/29 00:46:37;;;;;;;;;;;20.30;99.90;;;;;;5011576;28;19924;-71
2022/12/29 00:51:49;;;;;;;;;;;20.30;99.90;;;;;;5011888;28;19920;-70
2022/12/29 00:54:16;;;;;;;;;;;20.30;99.90;;;;;;5011465;28;19910;-74
2022/12/29 00:56:43;;;;;;;;;;;20.30;99.90;;;;;;5011691;28;19914;-70
2022/12/29 00:59:11;;;;;;;;;;;20.50;99.90;;;;;;5011597;28;19963;-69
2022/12/29 01:01:38;;;;;;;;;;;20.70;99.90;;;;;;5012516;28;19913;-74
2022/12/29 01:04:06;;;;;;;;;;;20.80;99.90;;;;;;5010832;28;20434;-72
2022/12/29 01:06:32;;;;;;;;;;;20.90;99.90;;;;;;5011564;28;19913;-73
2022/12/29 01:11:49;;;;;;;;;;;20.70;99.90;;;;;;4973128;28;19914;-69
2022/12/29 01:14:16;;;;;;;;;;;20.80;99.90;;;;;;5011430;28;20382;-75
2022/12/29 01:16:43;;;;;;;;;;;20.90;99.90;;;;;;5011269;28;19916;-76
2022/12/29 01:19:10;;;;;;;;;;;20.80;99.90;;;;;;5011296;28;19914;-75
2022/12/29 01:21:36;;;;;;;;;;;20.70;99.90;;;;;;5012621;28;19989;-76
2022/12/29 01:24:03;;;;;;;;;;;20.70;99.90;;;;;;5015202;28;20052;-77
2022/12/29 01:26:30;;;;;;;;;;;20.80;99.90;;;;;;5014768;28;19979;-69
2022/12/29 01:28:56;;;;;;;;;;;21.00;99.90;;;;;;5015000;28;19925;-75
2022/12/29 01:31:23;;;;;;;;;;;21.00;99.90;;;;;;5014993;28;19909;-73
2022/12/29 01:33:50;;;;;;;;;;;21.00;99.90;;;;;;5014799;28;19929;-71
2022/12/29 01:36:17;;;;;;;;;;;20.70;99.90;;;;;;5014603;28;19917;-72
2022/12/29 01:38:44;;;;;;;;;;;20.80;99.90;;;;;;5015304;28;20375;-70
2022/12/29 01:41:12;;;;;;;;;;;20.90;99.90;;;;;;5014922;28;19917;-71
2022/12/29 01:43:53;;;;;;;;;;;20.80;99.90;;;;;;5014876;28;19921;-67
2022/12/29 01:46:28;;;;;;;;;;;20.80;99.90;;;;;;5014456;28;20012;-76
2022/12/29 01:49:15;;;;;;;;;;;21.00;99.90;;;;;;5015232;28;19925;-70
2022/12/29 01:51:45;;;;;;;;;;;21.20;99.90;;;;;;5014785;28;20359;-66
2022/12/29 01:54:14;;;;;;;;;;;21.00;99.90;;;;;;5029864;28;19914;-72
2022/12/29 01:56:41;;;;;;;;;;;21.00;99.90;;;;;;5015189;28;20276;-74
2022/12/29 01:59:11;;;;;;;;;;;21.00;99.90;;;;;;5015266;28;19917;-74
2022/12/29 02:01:38;;;;;;;;;;;20.90;99.90;;;;;;5014377;28;19940;-75
2022/12/29 02:04:04;;;;;;;;;;;20.90;99.90;;;;;;5014816;28;19922;-75
2022/12/29 02:06:37;;;;;;;;;;;21.00;99.90;;;;;;5015235;28;19921;-75
2022/12/29 02:09:04;;;;;;;;;;;21.10;99.90;;;;;;5000383;28;19926;-74
2022/12/29 02:11:31;;;;;;;;;;;20.90;99.90;;;;;;5014111;28;19920;-70
2022/12/29 02:13:58;;;;;;;;;;;21.00;99.90;;;;;;5014136;28;19949;-69
2022/12/29 02:16:33;;;;;;;;;;;21.00;99.90;;;;;;5014708;28;19910;-75
2022/12/29 02:19:18;;;;;;;;;;;21.10;99.90;;;;;;5014475;28;20360;-72
2022/12/29 02:21:45;;;;;;;;;;;21.00;99.90;;;;;;5014600;28;19917;-70
2022/12/29 02:24:22;;;;;;;;;;;20.90;99.90;;;;;;5013382;28;19913;-73
2022/12/29 02:27:07;;;;;;;;;;;21.00;99.90;;;;;;5014210;28;19936;-68
2022/12/29 02:29:40;;;;;;;;;;;21.10;99.90;;;;;;5013606;28;19913;-69
2022/12/29 02:32:19;;;;;;;;;;;21.20;99.90;;;;;;5013606;28;19917;-71
2022/12/29 02:35:08;;;;;;;;;;;21.40;99.90;;;;;;5013157;28;20438;-73
2022/12/29 02:37:41;;;;;;;;;;;21.30;99.90;;;;;;5002776;28;19921;-72
2022/12/29 02:40:17;;;;;;;;;;;21.20;99.90;;;;;;5013473;28;19913;-70
2022/12/29 02:43:16;;;;;;;;;;;21.20;99.90;;;;;;5009766;28;20497;-74
2022/12/29 02:45:51;;;;;;;;;;;21.40;99.90;;;;;;4991128;28;19914;-70
2022/12/29 02:48:17;;;;;;;;;;;21.50;99.90;;;;;;5012824;28;19929;-71
2022/12/29 02:50:48;;;;;;;;;;;21.40;99.90;;;;;;5013594;28;19917;-72
2022/12/29 02:54:40;;;;;;;;;;;21.30;99.90;;;;;;5012780;28;20016;-75
2022/12/29 02:56:04;;;;;;;;;;;21.20;99.90;;;;;;5009606;28;19917;-78
2022/12/29 02:58:30;;;;;;;;;;;21.20;99.90;;;;;;5013704;28;19925;-72
2022/12/29 03:01:23;;;;;;;;;;;21.20;99.90;;;;;;5013695;28;20248;-72
2022/12/29 03:04:09;;;;;;;;;;;21.30;99.90;;;;;;5011755;28;19921;-74
2022/12/29 03:06:51;;;;;;;;;;;21.40;99.90;;;;;;5009626;28;19980;-68
2022/12/29 03:09:23;;;;;;;;;;;21.30;99.90;;;;;;5012950;28;19957;-71
2022/12/29 03:12:10;;;;;;;;;;;21.50;99.90;;;;;;5012796;28;19914;-69
2022/12/29 03:17:36;;;;;;;;;;;21.80;99.90;;;;;;5013410;28;19917;-71
2022/12/29 03:20:07;;;;;;;;;;;22.00;99.90;;;;;;5013104;28;19913;-77
2022/12/29 03:22:37;;;;;;;;;;;22.00;99.90;;;;;;5012908;28;20367;-75
2022/12/29 03:25:06;;;;;;;;;;;21.90;99.90;;;;;;5013027;28;19921;-73
2022/12/29 03:27:35;;;;;;;;;;;21.90;99.90;;;;;;5012389;28;19929;-77
2022/12/29 03:30:03;;;;;;;;;;;21.90;99.90;;;;;;5012740;28;19920;-68
2022/12/29 03:32:39;;;;;;;;;;;21.80;99.90;;;;;;5012205;28;19960;-76
2022/12/29 03:35:06;;;;;;;;;;;21.80;99.90;;;;;;5011902;28;20398;-68
2022/12/29 03:37:39;;;;;;;;;;;21.80;99.90;;;;;;5011681;28;19925;-71
2022/12/29 03:40:06;;;;;;;;;;;21.80;99.90;;;;;;5001003;28;19940;-76
2022/12/29 03:42:34;;;;;;;;;;;21.70;99.90;;;;;;5012597;28;20247;-72
2022/12/29 03:45:01;;;;;;;;;;;21.90;99.90;;;;;;5011847;28;20004;-69
2022/12/29 03:47:27;;;;;;;;;;;21.90;99.90;;;;;;5012160;28;19979;-72
2022/12/29 03:49:54;;;;;;;;;;;21.90;99.90;;;;;;5012258;28;20674;-72
2022/12/29 03:52:21;;;;;;;;;;;22.00;99.90;;;;;;5012615;28;19913;-69
2022/12/29 03:54:47;;;;;;;;;;;22.00;99.90;;;;;;5012080;28;20284;-70
2022/12/29 03:57:14;;;;;;;;;;;22.10;99.90;;;;;;5012437;28;20024;-69
2022/12/29 03:59:41;;;;;;;;;;;22.10;99.90;;;;;;5012001;28;19918;-73
2022/12/29 04:02:07;;;;;;;;;;;22.20;99.90;;;;;;5011410;28;20359;-67
2022/12/29 04:04:34;;;;;;;;;;;22.20;99.90;;;;;;5012379;28;19914;-67
2022/12/29 04:07:01;;;;;;;;;;;22.30;99.90;;;;;;5012334;28;20015;-67
2022/12/29 04:09:28;;;;;;;;;;;22.20;99.90;;;;;;5012037;28;20004;-74
2022/12/29 04:11:55;;;;;;;;;;;22.20;99.90;;;;;;5011860;28;19921;-71
2022/12/29 04:14:21;;;;;;;;;;;22.30;99.90;;;;;;5011956;28;19922;-67
2022/12/29 04:16:48;;;;;;;;;;;22.30;99.90;;;;;;5011234;28;20387;-72
2022/12/29 04:19:15;;;;;;;;;;;22.10;99.90;;;;;;5010976;28;20096;-69
2022/12/29 04:21:41;;;;;;;;;;;22.30;99.90;;;;;;5012147;28;19925;-69
2022/12/29 04:24:08;;;;;;;;;;;22.20;99.90;;;;;;5012251;28;19932;-71
2022/12/29 04:26:35;;;;;;;;;;;22.30;99.90;;;;;;5012529;28;19917;-71
2022/12/29 04:29:02;;;;;;;;;;;22.10;99.90;;;;;;5012375;28;20286;-74
2022/12/29 04:31:28;;;;;;;;;;;22.20;99.90;;;;;;5012015;28;19909;-67
2022/12/29 04:33:57;;;;;;;;;;;22.30;99.90;;;;;;5011709;28;19929;-72
2022/12/29 04:36:24;;;;;;;;;;;22.30;99.90;;;;;;5012454;28;20312;-71
2022/12/29 04:38:50;;;;;;;;;;;22.30;99.90;;;;;;5011954;28;19914;-73
2022/12/29 04:41:17;;;;;;;;;;;22.30;99.90;;;;;;5012082;28;20067;-70
2022/12/29 04:43:43;;;;;;;;;;;22.30;99.90;;;;;;5012145;28;20371;-70
2022/12/29 04:46:10;;;;;;;;;;;22.30;99.90;;;;;;5011807;28;20023;-73
2022/12/29 04:48:37;;;;;;;;;;;22.20;99.90;;;;;;5011314;28;19921;-68
2022/12/29 04:51:04;;;;;;;;;;;22.30;99.90;;;;;;5011922;28;19952;-75
2022/12/29 04:53:30;;;;;;;;;;;22.30;99.90;;;;;;5011573;28;19913;-69
2022/12/29 04:55:57;;;;;;;;;;;22.30;99.90;;;;;;5012278;28;19909;-68
2022/12/29 04:58:24;;;;;;;;;;;22.40;99.90;;;;;;5012721;28;20261;-73
2022/12/29 05:00:51;;;;;;;;;;;22.50;99.90;;;;;;5010312;28;19921;-70
2022/12/29 05:03:18;;;;;;;;;;;22.50;99.90;;;;;;5011542;28;19964;-72
2022/12/29 05:05:44;;;;;;;;;;;22.70;99.90;;;;;;5011259;28;19921;-69
2022/12/29 05:08:11;;;;;;;;;;;22.50;99.90;;;;;;5011688;28;19929;-70
2022/12/29 05:10:38;;;;;;;;;;;22.40;99.90;;;;;;5012246;28;19909;-70
2022/12/29 05:13:04;;;;;;;;;;;22.40;99.90;;;;;;5011886;28;19921;-71
2022/12/29 05:15:31;;;;;;;;;;;22.20;99.90;;;;;;5011953;28;19913;-67
2022/12/29 05:17:58;;;;;;;;;;;22.20;99.90;;;;;;5012139;28;19996;-75
2022/12/29 05:20:24;;;;;;;;;;;22.30;99.90;;;;;;5012231;28;19960;-74
2022/12/29 05:22:51;;;;;;;;;;;22.30;99.90;;;;;;5011527;28;20376;-70
2022/12/29 05:25:17;;;;;;;;;;;22.20;99.90;;;;;;5012099;28;20371;-73
2022/12/29 05:27:44;;;;;;;;;;;22.30;99.90;;;;;;5011912;28;19984;-68
2022/12/29 05:30:11;;;;;;;;;;;22.30;99.90;;;;;;5011987;28;19916;-73
2022/12/29 05:32:38;;;;;;;;;;;22.50;99.90;;;;;;5011207;28;20347;-74
2022/12/29 05:35:05;;;;;;;;;;;22.50;99.90;;;;;;5011857;28;19932;-78
2022/12/29 05:37:31;;;;;;;;;;;22.50;99.90;;;;;;5011586;28;19918;-77
2022/12/29 05:39:59;;;;;;;;;;;22.50;99.90;;;;;;5011978;28;20340;-79
2022/12/29 05:42:25;;;;;;;;;;;22.50;99.90;;;;;;5011467;28;19913;-74
2022/12/29 05:44:53;;;;;;;;;;;22.40;99.90;;;;;;5011247;28;20718;-73
2022/12/29 05:47:20;;;;;;;;;;;22.40;99.90;;;;;;5011184;28;19921;-74
2022/12/29 05:49:46;;;;;;;;;;;22.40;99.90;;;;;;5011420;28;19967;-71
2022/12/29 05:52:13;;;;;;;;;;;22.40;99.90;;;;;;5009221;28;20419;-77
2022/12/29 05:54:40;;;;;;;;;;;22.40;99.90;;;;;;5009620;28;19909;-75
2022/12/29 05:57:06;;;;;;;;;;;22.40;99.90;;;;;;5010089;28;19913;-74
2022/12/29 05:59:33;;;;;;;;;;;22.40;99.90;;;;;;5009327;28;20367;-78
2022/12/29 06:02:00;;;;;;;;;;;22.40;99.90;;;;;;5008738;28;19928;-79
2022/12/29 06:04:27;;;;;;;;;;;22.30;99.90;;;;;;5008928;28;20379;-71
2022/12/29 06:06:54;;;;;;;;;;;22.40;99.90;;;;;;5009753;28;19926;-77
2022/12/29 06:09:20;;;;;;;;;;;22.40;99.90;;;;;;5013289;28;20394;-77
2022/12/29 06:11:47;;;;;;;;;;;22.30;99.90;;;;;;5013803;28;19957;-82
2022/12/29 06:14:13;;;;;;;;;;;22.20;99.90;;;;;;5013790;28;19916;-79
2022/12/29 06:16:41;;;;;;;;;;;22.10;99.90;;;;;;5012969;28;19913;-73
2022/12/29 06:19:08;;;;;;;;;;;22.10;99.90;;;;;;5012683;28;20025;-77
2022/12/29 06:21:35;;;;;;;;;;;22.10;99.90;;;;;;5012009;28;20394;-74
2022/12/29 06:24:01;;;;;;;;;;;22.20;99.90;;;;;;5012569;28;20003;-78
2022/12/29 06:26:28;;;;;;;;;;;22.10;99.90;;;;;;5012747;28;20403;-79
2022/12/29 06:28:55;;;;;;;;;;;22.00;99.90;;;;;;5012190;28;20348;-77
2022/12/29 06:31:21;;;;;;;;;;;21.80;99.90;;;;;;5012145;28;19914;-70
2022/12/29 06:33:48;;;;;;;;;;;21.90;99.90;;;;;;5011848;28;20372;-77
2022/12/29 06:36:15;;;;;;;;;;;22.00;99.90;;;;;;5012547;28;19925;-74
2022/12/29 06:38:41;;;;;;;;;;;21.90;99.90;;;;;;5012594;28;19913;-73
2022/12/29 06:41:08;;;;;;;;;;;21.90;99.90;;;;;;5012316;28;20012;-75
2022/12/29 06:43:37;;;;;;;;;;;21.80;99.90;;;;;;5012169;28;19992;-77
2022/12/29 06:46:05;;;;;;;;;;;21.80;99.90;;;;;;5011138;28;19921;-76
2022/12/29 06:48:31;;;;;;;;;;;21.90;99.90;;;;;;5012657;28;20071;-77
2022/12/29 06:50:58;;;;;;;;;;;21.80;99.90;;;;;;5013114;28;20019;-74
2022/12/29 06:53:25;;;;;;;;;;;21.70;99.90;;;;;;5012262;28;19910;-80
2022/12/29 06:55:56;;;;;;;;;;;21.70;99.90;;;;;;5012646;28;20194;-74
2022/12/29 06:58:23;;;;;;;;;;;21.60;99.90;;;;;;5013764;28;19921;-81
2022/12/29 07:00:50;;;;;;;;;;;21.60;99.90;;;;;;5014403;28;19999;-76
2022/12/29 07:03:16;;;;;;;;;;;21.60;99.90;;;;;;5012811;28;19910;-78
2022/12/29 07:05:43;;;;;;;;;;;21.50;99.90;;;;;;5013179;28;19917;-82
2022/12/29 07:08:10;;;;;;;;;;;21.50;99.90;;;;;;5028214;28;20437;-82
2022/12/29 07:10:36;;;;;;;;;;;21.40;99.90;;;;;;5012210;28;20363;-81
2022/12/29 07:13:03;;;;;;;;;;;21.40;99.90;;;;;;5027163;28;19910;-75
2022/12/29 07:15:30;;;;;;;;;;;21.40;99.90;;;;;;5012548;28;19918;-77
2022/12/29 07:17:56;;;;;;;;;;;21.40;99.90;;;;;;5012170;28;19913;-77
2022/12/29 07:20:23;;;;;;;;;;;21.40;99.90;;;;;;5012579;28;20020;-79
2022/12/29 07:22:49;;;;;;;;;;;21.30;99.90;;;;;;5011713;28;19909;-78
2022/12/29 07:25:17;;;;;;;;;;;21.30;99.90;;;;;;5011995;28;19933;-80
2022/12/29 07:27:43;;;;;;;;;;;21.30;99.90;;;;;;5012019;28;19929;-77
2022/12/29 07:30:10;;;;;;;;;;;21.30;99.90;;;;;;5011901;28;19917;-80
2022/12/29 07:32:37;;;;;;;;;;;21.20;99.90;;;;;;5011272;28;20012;-72
2022/12/29 07:35:03;;;;;;;;;;;21.20;99.90;;;;;;5011750;28;19971;-77
2022/12/29 07:37:30;;;;;;;;;;;21.20;99.90;;;;;;5012083;28;19913;-79
2022/12/29 07:39:57;;;;;;;;;;;21.10;99.90;;;;;;5012447;28;19917;-79
2022/12/29 07:42:23;;;;;;;;;;;21.10;99.90;;;;;;5012314;28;20004;-68
2022/12/29 07:44:50;;;;;;;;;;;21.20;99.90;;;;;;5012456;28;20005;-79
2022/12/29 07:47:17;;;;;;;;;;;21.10;99.90;;;;;;5012709;28;20275;-74
2022/12/29 07:49:49;;;;;;;;;;;21.10;99.90;;;;;;5012102;28;19921;-75
2022/12/29 07:52:16;;;;;;;;;;;21.10;99.90;;;;;;5012438;28;19979;-73
2022/12/29 07:54:43;;;;;;;;;;;21.20;99.90;;;;;;5013429;28;19956;-72
2022/12/29 07:57:09;;;;;;;;;;;21.10;99.90;;;;;;5012363;28;20236;-77
2022/12/29 07:59:36;;;;;;;;;;;21.10;99.90;;;;;;5013124;28;19918;-71
2022/12/29 08:02:03;;;;;;;;;;;21.10;99.90;;;;;;5013304;28;19920;-71
2022/12/29 08:04:31;;;;;;;;;;;21.20;99.90;;;;;;5014920;28;19909;-80
2022/12/29 08:06:57;;;;;;;;;;;21.10;99.90;;;;;;5015730;28;19909;-68
2022/12/29 08:09:24;;;;;;;;;;;21.00;99.90;;;;;;5014508;28;19914;-71
2022/12/29 08:11:51;;;;;;;;;;;21.00;99.90;;;;;;5017512;28;19927;-76
2022/12/29 08:14:19;;;;;;;;;;;20.90;99.90;;;;;;5014604;28;19913;-76
2022/12/29 08:16:46;;;;;;;;;;;20.90;99.90;;;;;;5015523;28;19917;-73
2022/12/29 08:19:13;;;;;;;;;;;20.80;99.90;;;;;;5014208;28;19909;-68
2022/12/29 08:21:39;;;;;;;;;;;20.70;99.90;;;;;;5013312;28;19917;-73
2022/12/29 08:24:06;;;;;;;;;;;20.70;99.90;;;;;;5015696;28;19909;-76
2022/12/29 08:26:33;;;;;;;;;;;20.80;99.90;;;;;;5019305;28;19952;-76
2022/12/29 08:29:00;;;;;;;;;;;20.70;99.90;;;;;;5023848;28;19975;-68
2022/12/29 08:31:26;;;;;;;;;;;20.70;99.90;;;;;;5021158;28;19917;-73
2022/12/29 08:33:53;;;;;;;;;;;20.70;99.90;;;;;;5022461;28;19937;-73
2022/12/29 08:36:20;;;;;;;;;;;20.70;99.90;;;;;;5028712;28;20425;-74
2022/12/29 08:38:46;;;;;;;;;;;20.70;99.90;;;;;;5027065;28;19910;-72
2022/12/29 08:41:13;;;;;;;;;;;20.50;99.90;;;;;;5031038;28;20738;-67
2022/12/29 08:43:40;;;;;;;;;;;20.60;99.90;;;;;;5013943;28;19920;-67
2022/12/29 08:46:06;;;;;;;;;;;20.60;99.90;;;;;;5013941;28;19917;-67
2022/12/29 08:48:33;;;;;;;;;;;20.60;99.90;;;;;;5013849;28;19918;-68
2022/12/29 08:51:00;;;;;;;;;;;20.60;99.90;;;;;;5013248;28;20366;-68
2022/12/29 08:53:26;;;;;;;;;;;20.60;99.90;;;;;;5012095;28;19917;-68
2022/12/29 08:55:57;;;;;;;;;;;20.60;99.90;;;;;;5012875;28;19925;-68
2022/12/29 08:58:24;;;;;;;;;;;20.50;99.90;;;;;;5012898;28;20015;-68
2022/12/29 09:00:54;;;;;;;;;;;20.60;99.90;;;;;;5013063;28;19913;-68
2022/12/29 09:03:21;;;;;;;;;;;20.50;99.90;;;;;;5016900;28;19913;-68
2022/12/29 09:05:49;;;;;;;;;;;20.40;99.90;;;;;;5017395;28;19916;-68
2022/12/29 09:08:16;;;;;;;;;;;20.40;99.90;;;;;;5012520;28;19933;-68
2022/12/29 09:10:43;;;;;;;;;;;20.40;99.90;;;;;;5013132;28;19916;-67
2022/12/29 09:13:11;;;;;;;;;;;20.40;99.90;;;;;;5012258;28;19909;-67
2022/12/29 09:15:37;;;;;;;;;;;20.40;99.90;;;;;;5012398;28;20528;-67
2022/12/29 09:18:04;;;;;;;;;;;20.40;99.90;;;;;;5012622;28;19917;-67
2022/12/29 09:20:31;;;;;;;;;;;20.40;99.90;;;;;;5012519;28;19936;-67
2022/12/29 09:22:58;;;;;;;;;;;20.40;99.90;;;;;;5012160;28;20372;-67
2022/12/29 09:25:25;;;;;;;;;;;20.40;99.90;;;;;;5012419;28;19913;-67
2022/12/29 09:27:53;;;;;;;;;;;20.40;99.90;;;;;;5012011;28;19925;-69
2022/12/29 09:30:20;;;;;;;;;;;20.30;99.90;;;;;;5012064;28;19913;-67
2022/12/29 09:32:47;;;;;;;;;;;20.30;99.90;;;;;;5012071;28;19909;-68
2022/12/29 09:35:14;;;;;;;;;;;20.20;99.90;;;;;;5011850;28;20347;-67
2022/12/29 09:37:41;;;;;;;;;;;20.20;99.90;;;;;;5012227;28;20045;-67
2022/12/29 09:40:16;;;;;;;;;;;20.20;99.90;;;;;;5012211;28;20000;-68
2022/12/29 09:42:48;;;;;;;;;;;20.20;99.90;;;;;;5013637;28;19921;-68
2022/12/29 09:45:17;;;;;;;;;;;20.20;99.90;;;;;;5015525;28;19978;-68
2022/12/29 09:47:45;;;;;;;;;;;20.20;99.90;;;;;;5015673;28;19965;-68
2022/12/29 09:50:14;;;;;;;;;;;20.20;99.90;;;;;;5015762;28;19914;-66
2022/12/29 09:52:47;;;;;;;;;;;20.20;99.90;;;;;;5015551;28;19993;-69
2022/12/29 09:55:22;;;;;;;;;;;20.20;99.90;;;;;;5015512;28;20004;-67
2022/12/29 09:57:54;;;;;;;;;;;20.20;99.90;;;;;;5015956;28;20399;-67
2022/12/29 10:00:22;;;;;;;;;;;20.20;99.90;;;;;;5015597;28;19949;-67
2022/12/29 10:02:52;;;;;;;;;;;20.10;99.90;;;;;;5015282;28;19909;-72
2022/12/29 10:05:24;;;;;;;;;;;20.10;99.90;;;;;;5015252;28;19909;-67
2022/12/29 10:07:57;;;;;;;;;;;20.10;99.90;;;;;;5015354;28;20358;-75
2022/12/29 10:10:23;;;;;;;;;;;20.10;99.90;;;;;;5015483;28;19918;-76
2022/12/29 10:13:08;;;;;;;;;;;20.10;99.90;;;;;;5014820;28;19913;-68
2022/12/29 10:15:35;;;;;;;;;;;20.10;99.90;;;;;;5014739;28;19944;-70
2022/12/29 10:18:10;;;;;;;;;;;20.20;99.90;;;;;;5015059;28;19920;-70
2022/12/29 10:20:43;;;;;;;;;;;20.20;99.90;;;;;;5015089;28;20000;-68
2022/12/29 10:23:17;;;;;;;;;;;20.20;99.90;;;;;;5014767;28;19917;-68
2022/12/29 10:25:45;;;;;;;;;;;20.10;99.90;;;;;;5014956;28;19913;-67
2022/12/29 10:28:35;;;;;;;;;;;20.10;99.90;;;;;;5014647;28;19964;-67
2022/12/29 10:31:03;;;;;;;;;;;20.10;99.90;;;;;;5009327;28;19944;-68
2022/12/29 10:33:37;;;;;;;;;;;20.10;99.90;;;;;;5014402;28;19968;-66
2022/12/29 10:36:12;;;;;;;;;;;20.10;99.90;;;;;;5014896;28;19987;-66
2022/12/29 10:38:43;;;;;;;;;;;20.10;99.90;;;;;;5014196;28;19914;-68
2022/12/29 10:41:09;;;;;;;;;;;20.10;99.90;;;;;;5014337;28;19924;-67
2022/12/29 10:43:43;;;;;;;;;;;20.10;99.90;;;;;;5013902;28;19913;-67
2022/12/29 10:46:12;;;;;;;;;;;20.10;99.90;;;;;;5014398;28;19914;-66
2022/12/29 10:48:39;;;;;;;;;;;20.10;99.90;;;;;;5014036;28;19980;-68
2022/12/29 10:51:08;;;;;;;;;;;20.00;99.90;;;;;;5014265;28;20431;-67
2022/12/29 10:53:44;;;;;;;;;;;20.00;99.90;;;;;;5012888;28;19913;-70
2022/12/29 10:56:28;;;;;;;;;;;20.00;99.90;;;;;;5010222;28;19936;-69
2022/12/29 10:58:55;;;;;;;;;;;20.10;99.90;;;;;;5014395;28;20356;-67
2022/12/29 11:01:23;;;;;;;;;;;20.00;99.90;;;;;;5013771;28;20264;-68
2022/12/29 11:03:49;;;;;;;;;;;20.10;99.90;;;;;;5013890;28;19924;-68
2022/12/29 11:06:24;;;;;;;;;;;20.10;99.90;;;;;;5014428;28;19920;-71
2022/12/29 11:08:53;;;;;;;;;;;20.00;99.90;;;;;;5014007;28;19922;-67
2022/12/29 11:11:26;;;;;;;;;;;20.00;99.90;;;;;;5012664;28;19914;-75
2022/12/29 11:14:02;;;;;;;;;;;20.00;99.90;;;;;;5013708;28;20391;-68
2022/12/29 11:16:33;;;;;;;;;;;20.00;99.90;;;;;;5013515;28;20363;-70
2022/12/29 11:19:00;;;;;;;;;;;20.10;99.90;;;;;;5014036;28;19914;-71
2022/12/29 11:21:31;;;;;;;;;;;20.00;99.90;;;;;;5012989;28;19913;-68
2022/12/29 11:24:03;;;;;;;;;;;20.00;99.90;;;;;;5013570;28;20375;-70
2022/12/29 11:26:30;;;;;;;;;;;20.00;99.90;;;;;;5013347;28;19918;-70
2022/12/29 11:29:06;;;;;;;;;;;20.10;99.90;;;;;;5013406;28;20394;-72
2022/12/29 11:31:40;;;;;;;;;;;20.10;99.90;;;;;;5012058;28;19921;-76
2022/12/29 11:34:07;;;;;;;;;;;20.10;99.90;;;;;;5012845;28;19967;-77
2022/12/29 11:36:34;;;;;;;;;;;20.00;99.90;;;;;;5013639;28;19955;-75
2022/12/29 11:39:02;;;;;;;;;;;20.10;99.90;;;;;;5013640;28;19917;-77
2022/12/29 11:41:30;;;;;;;;;;;20.00;99.90;;;;;;5012744;28;20295;-76
2022/12/29 11:43:58;;;;;;;;;;;20.00;99.90;;;;;;5013185;28;20427;-73
2022/12/29 11:46:30;;;;;;;;;;;20.00;99.90;;;;;;5013143;28;19996;-78
2022/12/29 11:48:59;;;;;;;;;;;20.00;99.90;;;;;;5012888;28;19939;-81
2022/12/29 11:51:28;;;;;;;;;;;20.10;99.90;;;;;;5012495;28;19929;-71
2022/12/29 11:53:59;;;;;;;;;;;20.00;99.90;;;;;;5013366;28;19910;-70
2022/12/29 11:56:37;;;;;;;;;;;20.00;99.90;;;;;;5012895;28;19920;-79
2022/12/29 11:59:41;;;;;;;;;;;20.00;99.90;;;;;;5013051;28;20268;-72
2022/12/29 12:02:21;;;;;;;;;;;20.00;99.90;;;;;;4971135;28;20005;-74
2022/12/29 12:04:49;;;;;;;;;;;20.10;99.90;;;;;;4970180;28;19918;-78
2022/12/29 12:07:16;;;;;;;;;;;20.00;99.90;;;;;;4994563;28;19944;-75
2022/12/29 12:09:49;;;;;;;;;;;20.00;99.90;;;;;;5012464;28;19924;-77
2022/12/29 12:12:30;;;;;;;;;;;20.00;99.90;;;;;;5012729;28;19921;-71
2022/12/29 12:15:01;;;;;;;;;;;20.00;99.90;;;;;;5011509;28;19917;-79
2022/12/29 12:17:40;;;;;;;;;;;20.00;99.90;;;;;;5012915;28;19910;-78
2022/12/29 12:20:25;;;;;;;;;;;20.00;99.90;;;;;;5012801;28;19913;-79
2022/12/29 12:23:12;;;;;;;;;;;20.00;99.90;;;;;;5011227;28;19918;-79
2022/12/29 12:25:43;;;;;;;;;;;20.00;99.90;;;;;;5012174;28;19918;-77
2022/12/29 12:28:29;;;;;;;;;;;20.00;99.90;;;;;;5012025;28;19987;-79
2022/12/29 12:30:57;;;;;;;;;;;20.00;99.90;;;;;;5011463;28;19940;-76
2022/12/29 12:33:39;;;;;;;;;;;20.10;99.90;;;;;;5011035;28;20019;-75
2022/12/29 12:36:17;;;;;;;;;;;20.10;99.90;;;;;;5012470;28;19928;-78
2022/12/29 12:38:44;;;;;;;;;;;20.10;99.90;;;;;;5012249;28;20605;-78
2022/12/29 12:41:20;;;;;;;;;;;20.10;99.90;;;;;;5011993;28;19990;-79
2022/12/29 12:43:53;;;;;;;;;;;20.00;99.90;;;;;;5012200;28;19913;-78
2022/12/29 12:46:44;;;;;;;;;;;20.00;99.90;;;;;;5022293;28;19967;-74
2022/12/29 12:49:32;;;;;;;;;;;20.00;99.90;;;;;;5009190;28;19921;-82
2022/12/29 12:52:05;;;;;;;;;;;20.00;99.90;;;;;;5010157;28;20419;-79
2022/12/29 12:54:37;;;;;;;;;;;20.00;99.90;;;;;;4992521;28;19918;-72
2022/12/29 12:57:13;;;;;;;;;;;20.00;99.90;;;;;;5002095;28;19959;-74
2022/12/29 12:59:49;;;;;;;;;;;20.10;99.90;;;;;;5001940;28;19973;-73
2022/12/29 13:02:34;;;;;;;;;;;20.00;99.90;;;;;;5001457;28;19929;-73
2022/12/29 13:05:09;;;;;;;;;;;20.00;99.90;;;;;;4995877;28;20012;-80
2022/12/29 13:07:47;;;;;;;;;;;20.10;99.90;;;;;;5003247;28;19925;-71
2022/12/29 13:10:26;;;;;;;;;;;20.10;99.90;;;;;;5003883;28;20016;-73
2022/12/29 13:13:16;;;;;;;;;;;20.10;99.90;;;;;;5004000;28;19928;-76
2022/12/29 13:16:06;;;;;;;;;;;20.10;99.90;;;;;;4997695;28;19917;-77
2022/12/29 13:18:51;;;;;;;;;;;20.00;99.90;;;;;;5007157;28;20466;-75
2022/12/29 13:21:36;;;;;;;;;;;20.00;99.90;;;;;;5006260;28;19924;-71
2022/12/29 13:24:07;;;;;;;;;;;19.90;99.90;;;;;;4987940;28;20450;-70
2022/12/29 13:26:37;;;;;;;;;;;20.00;99.90;;;;;;5006306;28;19917;-74
2022/12/29 13:29:13;;;;;;;;;;;19.90;99.90;;;;;;5007287;28;19921;-74
2022/12/29 13:32:06;;;;;;;;;;;19.90;99.90;;;;;;5007468;28;19917;-72
2022/12/29 13:34:45;;;;;;;;;;;19.90;99.90;;;;;;4991026;28;20035;-72
2022/12/29 13:37:20;;;;;;;;;;;19.90;99.90;;;;;;5006755;28;20276;-71
2022/12/29 13:39:58;;;;;;;;;;;19.80;99.90;;;;;;5007265;28;20350;-69
2022/12/29 13:42:25;;;;;;;;;;;19.80;99.90;;;;;;5007570;28;20023;-69
2022/12/29 13:44:59;;;;;;;;;;;19.80;99.90;;;;;;5006525;28;19924;-73
2022/12/29 13:47:28;;;;;;;;;;;19.80;99.90;;;;;;5005526;28;19964;-69
2022/12/29 13:49:57;;;;;;;;;;;19.80;99.90;;;;;;5006368;28;20675;-69
2022/12/29 13:52:33;;;;;;;;;;;19.70;99.90;;;;;;5008551;28;19932;-69
2022/12/29 13:55:07;;;;;;;;;;;19.70;99.90;;;;;;5014521;28;19923;-68
2022/12/29 13:57:47;;;;;;;;;;;19.60;99.90;;;;;;5015764;28;19952;-65
2022/12/29 14:00:18;;;;;;;;;;;19.60;99.90;;;;;;5014497;28;19910;-66
2022/12/29 14:02:45;;;;;;;;;;;19.60;99.90;;;;;;5015372;28;19931;-67
2022/12/29 14:05:31;;;;;;;;;;;19.60;99.90;;;;;;5015398;28;19917;-67
2022/12/29 14:07:59;;;;;;;;;;;19.50;99.90;;;;;;5015618;28;19917;-74
2022/12/29 14:10:33;;;;;;;;;;;19.50;99.90;;;;;;5015315;28;20008;-67
2022/12/29 14:13:02;;;;;;;;;;;19.50;99.90;;;;;;5015066;28;19913;-70
2022/12/29 14:15:29;;;;;;;;;;;19.40;99.90;;;;;;5015071;28;20252;-67
2022/12/29 14:18:21;;;;;;;;;;;19.40;99.90;;;;;;5014728;28;20009;-66
2022/12/29 14:20:48;;;;;;;;;;;19.30;99.90;;;;;;5013122;28;20371;-68
2022/12/29 14:23:17;;;;;;;;;;;19.20;99.90;;;;;;5014639;28;19961;-67
2022/12/29 14:26:02;;;;;;;;;;;19.20;99.90;;;;;;5015381;28;19909;-67
2022/12/29 14:28:30;;;;;;;;;;;19.20;99.90;;;;;;5014335;28;20406;-67
2022/12/29 14:30:57;;;;;;;;;;;19.20;99.90;;;;;;5014990;28;20367;-68
2022/12/29 14:33:27;;;;;;;;;;;19.20;99.90;;;;;;5014348;28;19951;-67
2022/12/29 14:35:54;;;;;;;;;;;19.20;99.90;;;;;;5014463;28;19983;-69
2022/12/29 14:38:30;;;;;;;;;;;19.20;99.90;;;;;;5014936;28;19973;-68
2022/12/29 14:41:15;;;;;;;;;;;19.20;99.90;;;;;;5014356;28;19940;-67
2022/12/29 14:43:51;;;;;;;;;;;19.20;99.90;;;;;;5014642;28;20004;-67
2022/12/29 14:46:18;;;;;;;;;;;19.30;99.90;;;;;;5014492;28;19913;-67
2022/12/29 14:48:44;;;;;;;;;;;19.30;99.90;;;;;;5014387;28;19925;-69
2022/12/29 14:51:26;;;;;;;;;;;19.30;99.90;;;;;;5014327;28;19910;-68
2022/12/29 14:53:53;;;;;;;;;;;19.30;99.90;;;;;;4995027;28;19926;-67
2022/12/29 14:56:24;;;;;;;;;;;19.30;99.90;;;;;;4995048;28;19921;-68
2022/12/29 14:58:51;;;;;;;;;;;19.30;99.90;;;;;;4994968;28;19910;-71
2022/12/29 15:01:33;;;;;;;;;;;19.40;99.90;;;;;;4996027;28;19973;-67
2022/12/29 15:04:03;;;;;;;;;;;19.30;99.90;;;;;;5014188;28;19940;-69
2022/12/29 15:06:30;;;;;;;;;;;19.40;99.90;;;;;;5014381;28;19919;-67
2022/12/29 15:09:16;;;;;;;;;;;19.30;99.90;;;;;;5013904;28;19926;-68